sensor_id;sensor_type;location;lat;lon;timestamp;temperature;humidity
30304;DHT22;17112;48.636;10.152;2022-08-21T00:00:12;17.50;72.40
30304;DHT22;17112;48.636;10.152;2022-08-21T00:02:48;17.50;72.60
30304;DHT22;17112;48.636;10.152;2022-08-21T00:05:15;17.50;72.80
30304;DHT22;17112;48.636;10.152;2022-08-21T00:07:41;17.50;72.60
30304;DHT22;17112;48.636;10.152;2022-08-21T00:10:08;17.50;72.70
30304;DHT22;17112;48.636;10.152;2022-08-21T00:12:33;17.50;72.90
30304;DHT22;17112;48.636;10.152;2022-08-21T00:14:59;17.40;73.00
30304;DHT22;17112;48.636;10.152;2022-08-21T00:17:25;17.40;73.00
30304;DHT22;17112;48.636;10.152;2022-08-21T00:19:50;17.40;72.90
30304;DHT22;17112;48.636;10.152;2022-08-21T00:22:16;17.40;72.90
30304;DHT22;17112;48.636;10.152;2022-08-21T00:24:42;17.40;73.00
30304;DHT22;17112;48.636;10.152;2022-08-21T00:27:08;17.40;73.10
30304;DHT22;17112;48.636;10.152;2022-08-21T00:29:34;17.30;73.10
30304;DHT22;17112;48.636;10.152;2022-08-21T00:31:59;17.30;73.10
30304;DHT22;17112;48.636;10.152;2022-08-21T00:34:25;17.30;73.20
30304;DHT22;17112;48.636;10.152;2022-08-21T00:36:51;17.30;73.20
30304;DHT22;17112;48.636;10.152;2022-08-21T00:39:17;17.30;73.40
30304;DHT22;17112;48.636;10.152;2022-08-21T00:41:43;17.20;73.60
30304;DHT22;17112;48.636;10.152;2022-08-21T00:44:14;17.20;73.70
30304;DHT22;17112;48.636;10.152;2022-08-21T00:46:42;17.20;74.20
30304;DHT22;17112;48.636;10.152;2022-08-21T00:49:10;17.20;74.00
30304;DHT22;17112;48.636;10.152;2022-08-21T00:51:50;17.20;74.00
30304;DHT22;17112;48.636;10.152;2022-08-21T00:54:19;17.10;74.30
30304;DHT22;17112;48.636;10.152;2022-08-21T00:56:54;17.10;73.80
30304;DHT22;17112;48.636;10.152;2022-08-21T00:59:21;17.10;74.00
30304;DHT22;17112;48.636;10.152;2022-08-21T01:01:49;17.10;73.60
30304;DHT22;17112;48.636;10.152;2022-08-21T01:04:15;17.10;73.40
30304;DHT22;17112;48.636;10.152;2022-08-21T01:06:42;17.00;73.10
30304;DHT22;17112;48.636;10.152;2022-08-21T01:09:08;17.00;73.00
30304;DHT22;17112;48.636;10.152;2022-08-21T01:11:34;17.00;72.90
30304;DHT22;17112;48.636;10.152;2022-08-21T01:14:00;17.00;72.90
30304;DHT22;17112;48.636;10.152;2022-08-21T01:16:26;17.00;72.90
30304;DHT22;17112;48.636;10.152;2022-08-21T01:18:51;17.00;72.80
30304;DHT22;17112;48.636;10.152;2022-08-21T01:21:21;16.90;72.80
30304;DHT22;17112;48.636;10.152;2022-08-21T01:23:49;16.90;73.00
30304;DHT22;17112;48.636;10.152;2022-08-21T01:26:19;16.80;72.90
30304;DHT22;17112;48.636;10.152;2022-08-21T01:28:54;16.80;73.10
30304;DHT22;17112;48.636;10.152;2022-08-21T01:31:24;16.80;73.10
30304;DHT22;17112;48.636;10.152;2022-08-21T01:33:51;16.80;73.10
30304;DHT22;17112;48.636;10.152;2022-08-21T01:36:17;16.80;73.10
30304;DHT22;17112;48.636;10.152;2022-08-21T01:38:42;16.70;73.00
30304;DHT22;17112;48.636;10.152;2022-08-21T01:41:08;16.70;72.90
30304;DHT22;17112;48.636;10.152;2022-08-21T01:43:34;16.70;72.80
30304;DHT22;17112;48.636;10.152;2022-08-21T01:46:00;16.70;72.80
30304;DHT22;17112;48.636;10.152;2022-08-21T01:48:27;16.70;73.00
30304;DHT22;17112;48.636;10.152;2022-08-21T01:50:53;16.60;73.00
30304;DHT22;17112;48.636;10.152;2022-08-21T01:53:18;16.60;73.10
30304;DHT22;17112;48.636;10.152;2022-08-21T01:55:45;16.60;72.90
30304;DHT22;17112;48.636;10.152;2022-08-21T01:58:11;16.60;72.80
30304;DHT22;17112;48.636;10.152;2022-08-21T02:00:36;16.60;72.60
30304;DHT22;17112;48.636;10.152;2022-08-21T02:03:02;16.50;72.50
30304;DHT22;17112;48.636;10.152;2022-08-21T02:05:28;16.50;72.40
30304;DHT22;17112;48.636;10.152;2022-08-21T02:07:54;16.50;72.50
30304;DHT22;17112;48.636;10.152;2022-08-21T02:10:30;16.40;72.50
30304;DHT22;17112;48.636;10.152;2022-08-21T02:12:57;16.40;72.60
30304;DHT22;17112;48.636;10.152;2022-08-21T02:15:23;16.40;72.50
30304;DHT22;17112;48.636;10.152;2022-08-21T02:17:54;16.30;72.60
30304;DHT22;17112;48.636;10.152;2022-08-21T02:20:32;16.30;72.70
30304;DHT22;17112;48.636;10.152;2022-08-21T02:22:58;16.30;72.70
30304;DHT22;17112;48.636;10.152;2022-08-21T02:25:25;16.20;72.60
30304;DHT22;17112;48.636;10.152;2022-08-21T02:27:52;16.20;72.50
30304;DHT22;17112;48.636;10.152;2022-08-21T02:30:24;16.10;72.50
30304;DHT22;17112;48.636;10.152;2022-08-21T02:32:50;16.10;72.50
30304;DHT22;17112;48.636;10.152;2022-08-21T02:35:16;16.10;72.60
30304;DHT22;17112;48.636;10.152;2022-08-21T02:37:55;16.10;72.80
30304;DHT22;17112;48.636;10.152;2022-08-21T02:40:24;16.10;73.10
30304;DHT22;17112;48.636;10.152;2022-08-21T02:42:50;16.00;72.80
30304;DHT22;17112;48.636;10.152;2022-08-21T02:45:15;16.00;72.80
30304;DHT22;17112;48.636;10.152;2022-08-21T02:47:57;16.00;72.90
30304;DHT22;17112;48.636;10.152;2022-08-21T02:50:26;16.00;73.20
30304;DHT22;17112;48.636;10.152;2022-08-21T02:52:52;16.00;73.10
30304;DHT22;17112;48.636;10.152;2022-08-21T02:55:19;16.00;73.10
30304;DHT22;17112;48.636;10.152;2022-08-21T02:57:46;15.90;73.10
30304;DHT22;17112;48.636;10.152;2022-08-21T03:00:13;15.90;73.10
30304;DHT22;17112;48.636;10.152;2022-08-21T03:02:39;15.90;73.10
30304;DHT22;17112;48.636;10.152;2022-08-21T03:05:06;15.90;73.00
30304;DHT22;17112;48.636;10.152;2022-08-21T03:07:32;15.90;73.10
30304;DHT22;17112;48.636;10.152;2022-08-21T03:09:58;15.80;73.00
30304;DHT22;17112;48.636;10.152;2022-08-21T03:12:24;15.80;72.90
30304;DHT22;17112;48.636;10.152;2022-08-21T03:14:49;15.80;72.90
30304;DHT22;17112;48.636;10.152;2022-08-21T03:17:15;15.80;72.90
30304;DHT22;17112;48.636;10.152;2022-08-21T03:19:41;15.70;72.90
30304;DHT22;17112;48.636;10.152;2022-08-21T03:22:06;15.70;73.00
30304;DHT22;17112;48.636;10.152;2022-08-21T03:24:33;15.70;72.90
30304;DHT22;17112;48.636;10.152;2022-08-21T03:26:58;15.70;72.90
30304;DHT22;17112;48.636;10.152;2022-08-21T03:29:25;15.70;72.90
30304;DHT22;17112;48.636;10.152;2022-08-21T03:31:51;15.60;72.80
30304;DHT22;17112;48.636;10.152;2022-08-21T03:34:20;15.60;72.80
30304;DHT22;17112;48.636;10.152;2022-08-21T03:36:46;15.60;72.70
30304;DHT22;17112;48.636;10.152;2022-08-21T03:39:12;15.60;72.80
30304;DHT22;17112;48.636;10.152;2022-08-21T03:41:37;15.60;72.80
30304;DHT22;17112;48.636;10.152;2022-08-21T03:44:03;15.50;72.70
30304;DHT22;17112;48.636;10.152;2022-08-21T03:46:29;15.50;72.60
30304;DHT22;17112;48.636;10.152;2022-08-21T03:48:54;15.50;72.70
30304;DHT22;17112;48.636;10.152;2022-08-21T03:51:21;15.50;72.70
30304;DHT22;17112;48.636;10.152;2022-08-21T03:53:46;15.40;72.70
30304;DHT22;17112;48.636;10.152;2022-08-21T03:56:12;15.40;72.70
30304;DHT22;17112;48.636;10.152;2022-08-21T03:58:37;15.40;72.70
30304;DHT22;17112;48.636;10.152;2022-08-21T04:01:04;15.40;72.70
30304;DHT22;17112;48.636;10.152;2022-08-21T04:03:33;15.30;72.70
30304;DHT22;17112;48.636;10.152;2022-08-21T04:05:59;15.30;72.70
30304;DHT22;17112;48.636;10.152;2022-08-21T04:08:25;15.30;72.50
30304;DHT22;17112;48.636;10.152;2022-08-21T04:10:53;15.30;72.50
30304;DHT22;17112;48.636;10.152;2022-08-21T04:13:20;15.30;72.60
30304;DHT22;17112;48.636;10.152;2022-08-21T04:15:47;15.30;72.70
30304;DHT22;17112;48.636;10.152;2022-08-21T04:18:13;15.20;72.70
30304;DHT22;17112;48.636;10.152;2022-08-21T04:20:40;15.20;72.70
30304;DHT22;17112;48.636;10.152;2022-08-21T04:23:07;15.20;72.80
30304;DHT22;17112;48.636;10.152;2022-08-21T04:25:33;15.10;73.50
30304;DHT22;17112;48.636;10.152;2022-08-21T04:27:59;15.10;72.90
30304;DHT22;17112;48.636;10.152;2022-08-21T04:30:24;15.10;73.00
30304;DHT22;17112;48.636;10.152;2022-08-21T04:32:51;15.10;73.10
30304;DHT22;17112;48.636;10.152;2022-08-21T04:35:21;15.00;73.00
30304;DHT22;17112;48.636;10.152;2022-08-21T04:37:48;15.00;72.90
30304;DHT22;17112;48.636;10.152;2022-08-21T04:40:16;15.00;72.90
30304;DHT22;17112;48.636;10.152;2022-08-21T04:42:49;15.00;72.80
30304;DHT22;17112;48.636;10.152;2022-08-21T04:47:50;15.00;73.00
30304;DHT22;17112;48.636;10.152;2022-08-21T04:50:17;15.00;72.90
30304;DHT22;17112;48.636;10.152;2022-08-21T04:52:43;15.00;72.80
30304;DHT22;17112;48.636;10.152;2022-08-21T04:55:09;15.00;72.80
30304;DHT22;17112;48.636;10.152;2022-08-21T04:57:35;15.00;73.00
30304;DHT22;17112;48.636;10.152;2022-08-21T05:00:03;15.00;73.20
30304;DHT22;17112;48.636;10.152;2022-08-21T05:02:30;15.00;73.30
30304;DHT22;17112;48.636;10.152;2022-08-21T05:04:59;15.10;73.40
30304;DHT22;17112;48.636;10.152;2022-08-21T05:07:27;15.10;73.50
30304;DHT22;17112;48.636;10.152;2022-08-21T05:09:54;15.10;73.80
30304;DHT22;17112;48.636;10.152;2022-08-21T05:12:20;15.20;74.00
30304;DHT22;17112;48.636;10.152;2022-08-21T05:14:45;15.20;74.00
30304;DHT22;17112;48.636;10.152;2022-08-21T05:17:12;15.30;74.20
30304;DHT22;17112;48.636;10.152;2022-08-21T05:19:38;15.30;74.10
30304;DHT22;17112;48.636;10.152;2022-08-21T05:22:04;15.40;74.20
30304;DHT22;17112;48.636;10.152;2022-08-21T05:24:29;15.50;74.20
30304;DHT22;17112;48.636;10.152;2022-08-21T05:26:55;15.60;74.10
30304;DHT22;17112;48.636;10.152;2022-08-21T05:29:21;15.60;74.20
30304;DHT22;17112;48.636;10.152;2022-08-21T05:31:47;15.70;74.30
30304;DHT22;17112;48.636;10.152;2022-08-21T05:34:14;15.90;74.30
30304;DHT22;17112;48.636;10.152;2022-08-21T05:36:43;16.00;74.20
30304;DHT22;17112;48.636;10.152;2022-08-21T05:39:09;16.00;74.10
30304;DHT22;17112;48.636;10.152;2022-08-21T05:41:34;16.10;74.00
30304;DHT22;17112;48.636;10.152;2022-08-21T05:44:00;16.30;73.80
30304;DHT22;17112;48.636;10.152;2022-08-21T05:46:26;16.40;73.80
30304;DHT22;17112;48.636;10.152;2022-08-21T05:48:51;16.50;73.90
30304;DHT22;17112;48.636;10.152;2022-08-21T05:51:17;16.60;73.90
30304;DHT22;17112;48.636;10.152;2022-08-21T05:53:43;16.70;73.70
30304;DHT22;17112;48.636;10.152;2022-08-21T05:56:10;16.80;73.50
30304;DHT22;17112;48.636;10.152;2022-08-21T05:58:35;16.90;73.60
30304;DHT22;17112;48.636;10.152;2022-08-21T06:01:02;17.10;73.60
30304;DHT22;17112;48.636;10.152;2022-08-21T06:03:34;17.20;73.60
30304;DHT22;17112;48.636;10.152;2022-08-21T06:06:00;17.30;73.40
30304;DHT22;17112;48.636;10.152;2022-08-21T06:08:27;17.50;73.20
30304;DHT22;17112;48.636;10.152;2022-08-21T06:10:54;17.60;73.10
30304;DHT22;17112;48.636;10.152;2022-08-21T06:13:21;17.70;72.80
30304;DHT22;17112;48.636;10.152;2022-08-21T06:15:48;17.80;72.70
30304;DHT22;17112;48.636;10.152;2022-08-21T06:18:14;17.90;72.70
30304;DHT22;17112;48.636;10.152;2022-08-21T06:20:41;18.00;72.60
30304;DHT22;17112;48.636;10.152;2022-08-21T06:23:06;18.10;72.60
30304;DHT22;17112;48.636;10.152;2022-08-21T06:25:32;18.20;72.50
30304;DHT22;17112;48.636;10.152;2022-08-21T06:28:07;18.40;72.40
30304;DHT22;17112;48.636;10.152;2022-08-21T06:30:33;18.50;72.20
30304;DHT22;17112;48.636;10.152;2022-08-21T06:32:59;18.60;72.20
30304;DHT22;17112;48.636;10.152;2022-08-21T06:35:25;18.70;72.10
30304;DHT22;17112;48.636;10.152;2022-08-21T06:37:52;18.80;72.00
30304;DHT22;17112;48.636;10.152;2022-08-21T06:40:18;18.90;71.70
30304;DHT22;17112;48.636;10.152;2022-08-21T06:42:45;19.10;71.60
30304;DHT22;17112;48.636;10.152;2022-08-21T06:45:13;19.20;71.60
30304;DHT22;17112;48.636;10.152;2022-08-21T06:47:39;19.30;71.30
30304;DHT22;17112;48.636;10.152;2022-08-21T06:50:06;19.50;71.20
30304;DHT22;17112;48.636;10.152;2022-08-21T06:52:36;19.60;71.00
30304;DHT22;17112;48.636;10.152;2022-08-21T06:55:07;19.70;70.70
30304;DHT22;17112;48.636;10.152;2022-08-21T06:57:35;19.90;70.50
30304;DHT22;17112;48.636;10.152;2022-08-21T07:00:03;20.00;70.10
30304;DHT22;17112;48.636;10.152;2022-08-21T07:02:29;20.20;69.50
30304;DHT22;17112;48.636;10.152;2022-08-21T07:04:55;20.40;69.30
30304;DHT22;17112;48.636;10.152;2022-08-21T07:07:20;20.50;68.90
30304;DHT22;17112;48.636;10.152;2022-08-21T07:09:46;20.70;69.00
30304;DHT22;17112;48.636;10.152;2022-08-21T07:12:12;20.80;68.70
30304;DHT22;17112;48.636;10.152;2022-08-21T07:14:38;20.90;68.60
30304;DHT22;17112;48.636;10.152;2022-08-21T07:17:03;21.00;68.20
30304;DHT22;17112;48.636;10.152;2022-08-21T07:19:29;21.10;67.90
30304;DHT22;17112;48.636;10.152;2022-08-21T07:21:58;21.20;68.10
30304;DHT22;17112;48.636;10.152;2022-08-21T07:24:25;21.30;68.20
30304;DHT22;17112;48.636;10.152;2022-08-21T07:26:51;21.40;68.20
30304;DHT22;17112;48.636;10.152;2022-08-21T07:29:16;21.50;68.00
30304;DHT22;17112;48.636;10.152;2022-08-21T07:31:42;21.70;67.70
30304;DHT22;17112;48.636;10.152;2022-08-21T07:34:08;21.80;67.30
30304;DHT22;17112;48.636;10.152;2022-08-21T07:36:34;21.90;67.50
30304;DHT22;17112;48.636;10.152;2022-08-21T07:39:00;22.00;67.20
30304;DHT22;17112;48.636;10.152;2022-08-21T07:41:28;22.20;67.00
30304;DHT22;17112;48.636;10.152;2022-08-21T07:43:56;22.40;66.90
30304;DHT22;17112;48.636;10.152;2022-08-21T07:46:23;22.50;66.10
30304;DHT22;17112;48.636;10.152;2022-08-21T07:48:49;22.70;66.10
30304;DHT22;17112;48.636;10.152;2022-08-21T07:51:17;22.80;66.00
30304;DHT22;17112;48.636;10.152;2022-08-21T07:53:51;23.00;65.70
30304;DHT22;17112;48.636;10.152;2022-08-21T07:56:17;23.10;64.90
30304;DHT22;17112;48.636;10.152;2022-08-21T07:58:43;23.30;65.10
30304;DHT22;17112;48.636;10.152;2022-08-21T08:01:09;23.40;65.10
30304;DHT22;17112;48.636;10.152;2022-08-21T08:03:35;23.60;65.30
30304;DHT22;17112;48.636;10.152;2022-08-21T08:06:02;23.70;64.30
30304;DHT22;17112;48.636;10.152;2022-08-21T08:08:30;23.90;63.90
30304;DHT22;17112;48.636;10.152;2022-08-21T08:10:56;24.00;63.30
30304;DHT22;17112;48.636;10.152;2022-08-21T08:13:23;24.20;62.60
30304;DHT22;17112;48.636;10.152;2022-08-21T08:15:49;24.30;61.70
30304;DHT22;17112;48.636;10.152;2022-08-21T08:18:15;24.40;61.50
30304;DHT22;17112;48.636;10.152;2022-08-21T08:20:42;24.50;61.50
30304;DHT22;17112;48.636;10.152;2022-08-21T08:23:11;24.70;60.80
30304;DHT22;17112;48.636;10.152;2022-08-21T08:25:36;24.70;60.10
30304;DHT22;17112;48.636;10.152;2022-08-21T08:28:03;24.90;59.80
30304;DHT22;17112;48.636;10.152;2022-08-21T08:30:29;25.00;59.60
30304;DHT22;17112;48.636;10.152;2022-08-21T08:32:55;25.10;59.30
30304;DHT22;17112;48.636;10.152;2022-08-21T08:35:22;25.20;59.10
30304;DHT22;17112;48.636;10.152;2022-08-21T08:37:48;25.40;59.00
30304;DHT22;17112;48.636;10.152;2022-08-21T08:43:12;25.60;55.70
30304;DHT22;17112;48.636;10.152;2022-08-21T08:45:42;25.70;57.20
30304;DHT22;17112;48.636;10.152;2022-08-21T08:48:13;25.80;57.10
30304;DHT22;17112;48.636;10.152;2022-08-21T08:50:44;25.90;56.10
30304;DHT22;17112;48.636;10.152;2022-08-21T08:53:23;26.00;56.10
30304;DHT22;17112;48.636;10.152;2022-08-21T08:55:51;26.10;52.90
30304;DHT22;17112;48.636;10.152;2022-08-21T08:58:30;26.20;55.20
30304;DHT22;17112;48.636;10.152;2022-08-21T09:00:56;26.20;54.10
30304;DHT22;17112;48.636;10.152;2022-08-21T09:03:24;26.30;55.40
30304;DHT22;17112;48.636;10.152;2022-08-21T09:09:00;26.50;54.80
30304;DHT22;17112;48.636;10.152;2022-08-21T09:17:04;26.80;51.50
30304;DHT22;17112;48.636;10.152;2022-08-21T09:20:03;26.90;50.10
30304;DHT22;17112;48.636;10.152;2022-08-21T09:25:21;27.00;48.70
30304;DHT22;17112;48.636;10.152;2022-08-21T09:27:47;27.00;47.90
30304;DHT22;17112;48.636;10.152;2022-08-21T09:30:14;27.00;48.50
30304;DHT22;17112;48.636;10.152;2022-08-21T09:32:40;27.00;47.80
30304;DHT22;17112;48.636;10.152;2022-08-21T09:35:13;27.00;49.00
30304;DHT22;17112;48.636;10.152;2022-08-21T09:38:05;27.10;48.50
30304;DHT22;17112;48.636;10.152;2022-08-21T09:40:37;27.20;46.70
30304;DHT22;17112;48.636;10.152;2022-08-21T09:45:35;27.30;47.90
30304;DHT22;17112;48.636;10.152;2022-08-21T09:48:17;27.40;46.70
30304;DHT22;17112;48.636;10.152;2022-08-21T09:50:45;27.50;46.20
30304;DHT22;17112;48.636;10.152;2022-08-21T09:53:30;27.60;47.60
30304;DHT22;17112;48.636;10.152;2022-08-21T09:56:16;27.60;45.40
30304;DHT22;17112;48.636;10.152;2022-08-21T09:59:00;27.70;46.10
30304;DHT22;17112;48.636;10.152;2022-08-21T10:01:27;27.90;46.70
30304;DHT22;17112;48.636;10.152;2022-08-21T10:04:08;28.00;46.70
30304;DHT22;17112;48.636;10.152;2022-08-21T10:06:34;28.10;44.90
30304;DHT22;17112;48.636;10.152;2022-08-21T10:09:05;28.20;45.60
30304;DHT22;17112;48.636;10.152;2022-08-21T10:11:32;28.20;43.90
30304;DHT22;17112;48.636;10.152;2022-08-21T10:14:10;28.10;45.10
30304;DHT22;17112;48.636;10.152;2022-08-21T10:22:06;28.40;45.10
30304;DHT22;17112;48.636;10.152;2022-08-21T10:24:57;28.50;46.20
30304;DHT22;17112;48.636;10.152;2022-08-21T10:27:36;28.60;43.00
30304;DHT22;17112;48.636;10.152;2022-08-21T10:41:13;28.20;43.10
30304;DHT22;17112;48.636;10.152;2022-08-21T10:46:51;27.90;41.80
30304;DHT22;17112;48.636;10.152;2022-08-21T10:49:47;27.80;41.50
30304;DHT22;17112;48.636;10.152;2022-08-21T10:55:22;27.70;42.40
30304;DHT22;17112;48.636;10.152;2022-08-21T10:58:09;27.80;42.70
30304;DHT22;17112;48.636;10.152;2022-08-21T11:00:43;27.90;41.70
30304;DHT22;17112;48.636;10.152;2022-08-21T11:03:15;27.90;40.50
30304;DHT22;17112;48.636;10.152;2022-08-21T11:05:52;27.90;41.20
30304;DHT22;17112;48.636;10.152;2022-08-21T11:08:26;27.80;40.80
30304;DHT22;17112;48.636;10.152;2022-08-21T11:11:19;27.70;40.40
30304;DHT22;17112;48.636;10.152;2022-08-21T11:13:58;27.70;39.70
30304;DHT22;17112;48.636;10.152;2022-08-21T11:16:37;27.80;41.40
30304;DHT22;17112;48.636;10.152;2022-08-21T11:19:12;27.90;40.80
30304;DHT22;17112;48.636;10.152;2022-08-21T11:21:53;28.10;41.70
30304;DHT22;17112;48.636;10.152;2022-08-21T11:24:44;28.30;40.70
30304;DHT22;17112;48.636;10.152;2022-08-21T11:27:23;28.50;40.70
30304;DHT22;17112;48.636;10.152;2022-08-21T11:29:54;28.70;40.50
30304;DHT22;17112;48.636;10.152;2022-08-21T11:46:11;29.20;39.20
30304;DHT22;17112;48.636;10.152;2022-08-21T11:51:21;29.50;39.80
30304;DHT22;17112;48.636;10.152;2022-08-21T11:54:01;29.60;39.00
30304;DHT22;17112;48.636;10.152;2022-08-21T11:56:40;29.70;39.20
30304;DHT22;17112;48.636;10.152;2022-08-21T11:59:24;29.90;39.40
30304;DHT22;17112;48.636;10.152;2022-08-21T12:01:53;30.00;38.50
30304;DHT22;17112;48.636;10.152;2022-08-21T12:04:31;30.10;39.20
30304;DHT22;17112;48.636;10.152;2022-08-21T12:07:11;30.30;37.50
30304;DHT22;17112;48.636;10.152;2022-08-21T12:09:38;30.40;36.90
30304;DHT22;17112;48.636;10.152;2022-08-21T12:12:22;30.50;38.70
30304;DHT22;17112;48.636;10.152;2022-08-21T12:14:50;30.50;37.40
30304;DHT22;17112;48.636;10.152;2022-08-21T12:17:21;30.60;36.50
30304;DHT22;17112;48.636;10.152;2022-08-21T12:20:14;30.60;36.10
30304;DHT22;17112;48.636;10.152;2022-08-21T12:22:41;30.60;35.30
30304;DHT22;17112;48.636;10.152;2022-08-21T12:25:17;30.50;36.60
30304;DHT22;17112;48.636;10.152;2022-08-21T12:27:52;30.50;35.10
30304;DHT22;17112;48.636;10.152;2022-08-21T12:32:58;30.40;35.70
30304;DHT22;17112;48.636;10.152;2022-08-21T12:35:33;30.40;35.70
30304;DHT22;17112;48.636;10.152;2022-08-21T12:40:42;30.50;36.20
30304;DHT22;17112;48.636;10.152;2022-08-21T12:45:53;30.70;35.20
30304;DHT22;17112;48.636;10.152;2022-08-21T12:50:51;30.90;33.90
30304;DHT22;17112;48.636;10.152;2022-08-21T12:55:48;31.00;34.40
30304;DHT22;17112;48.636;10.152;2022-08-21T12:58:22;31.00;35.50
30304;DHT22;17112;48.636;10.152;2022-08-21T13:00:57;31.10;34.20
30304;DHT22;17112;48.636;10.152;2022-08-21T13:03:24;31.20;35.30
30304;DHT22;17112;48.636;10.152;2022-08-21T13:05:50;31.30;34.30
30304;DHT22;17112;48.636;10.152;2022-08-21T13:08:20;31.40;33.60
30304;DHT22;17112;48.636;10.152;2022-08-21T13:10:48;31.30;33.80
30304;DHT22;17112;48.636;10.152;2022-08-21T13:13:24;31.30;33.60
30304;DHT22;17112;48.636;10.152;2022-08-21T13:16:00;31.30;32.00
30304;DHT22;17112;48.636;10.152;2022-08-21T13:18:30;31.20;32.10
30304;DHT22;17112;48.636;10.152;2022-08-21T13:21:14;31.00;32.30
30304;DHT22;17112;48.636;10.152;2022-08-21T13:23:40;30.80;32.40
30304;DHT22;17112;48.636;10.152;2022-08-21T13:26:17;30.60;32.70
30304;DHT22;17112;48.636;10.152;2022-08-21T13:28:43;30.40;32.60
30304;DHT22;17112;48.636;10.152;2022-08-21T13:31:15;30.40;33.90
30304;DHT22;17112;48.636;10.152;2022-08-21T13:33:42;30.40;33.80
30304;DHT22;17112;48.636;10.152;2022-08-21T13:36:38;30.50;33.90
30304;DHT22;17112;48.636;10.152;2022-08-21T13:39:08;30.50;32.80
30304;DHT22;17112;48.636;10.152;2022-08-21T13:41:38;30.60;33.10
30304;DHT22;17112;48.636;10.152;2022-08-21T13:44:13;30.60;32.80
30304;DHT22;17112;48.636;10.152;2022-08-21T13:46:39;30.70;32.50
30304;DHT22;17112;48.636;10.152;2022-08-21T13:49:06;30.80;32.70
30304;DHT22;17112;48.636;10.152;2022-08-21T13:51:33;30.80;33.20
30304;DHT22;17112;48.636;10.152;2022-08-21T13:54:00;30.90;33.60
30304;DHT22;17112;48.636;10.152;2022-08-21T13:56:33;31.10;33.40
30304;DHT22;17112;48.636;10.152;2022-08-21T13:59:06;31.30;33.60
30304;DHT22;17112;48.636;10.152;2022-08-21T14:01:38;31.50;32.40
30304;DHT22;17112;48.636;10.152;2022-08-21T14:04:18;31.60;31.60
30304;DHT22;17112;48.636;10.152;2022-08-21T14:06:46;31.50;30.90
30304;DHT22;17112;48.636;10.152;2022-08-21T14:09:22;31.40;32.40
30304;DHT22;17112;48.636;10.152;2022-08-21T14:11:50;31.30;32.00
30304;DHT22;17112;48.636;10.152;2022-08-21T14:14:29;31.10;32.60
30304;DHT22;17112;48.636;10.152;2022-08-21T14:17:00;31.00;32.20
30304;DHT22;17112;48.636;10.152;2022-08-21T14:25:10;31.30;30.60
30304;DHT22;17112;48.636;10.152;2022-08-21T14:28:24;31.40;31.30
30304;DHT22;17112;48.636;10.152;2022-08-21T14:30:29;31.60;30.90
30304;DHT22;17112;48.636;10.152;2022-08-21T14:32:55;31.90;32.90
30304;DHT22;17112;48.636;10.152;2022-08-21T14:35:21;32.20;31.70
30304;DHT22;17112;48.636;10.152;2022-08-21T14:37:48;32.40;31.00
30304;DHT22;17112;48.636;10.152;2022-08-21T14:40:16;32.40;30.70
30304;DHT22;17112;48.636;10.152;2022-08-21T14:42:43;32.30;30.60
30304;DHT22;17112;48.636;10.152;2022-08-21T14:45:14;32.10;30.30
30304;DHT22;17112;48.636;10.152;2022-08-21T14:47:41;31.90;29.80
30304;DHT22;17112;48.636;10.152;2022-08-21T14:50:09;31.70;30.40
30304;DHT22;17112;48.636;10.152;2022-08-21T14:52:35;31.50;30.40
30304;DHT22;17112;48.636;10.152;2022-08-21T14:55:03;31.20;30.30
30304;DHT22;17112;48.636;10.152;2022-08-21T14:57:30;31.10;30.70
30304;DHT22;17112;48.636;10.152;2022-08-21T14:59:56;31.10;31.60
30304;DHT22;17112;48.636;10.152;2022-08-21T15:02:22;31.30;32.70
30304;DHT22;17112;48.636;10.152;2022-08-21T15:04:48;31.50;33.00
30304;DHT22;17112;48.636;10.152;2022-08-21T15:07:14;31.90;33.30
30304;DHT22;17112;48.636;10.152;2022-08-21T15:09:39;32.20;32.20
30304;DHT22;17112;48.636;10.152;2022-08-21T15:12:06;32.70;31.30
30304;DHT22;17112;48.636;10.152;2022-08-21T15:14:34;33.00;31.40
30304;DHT22;17112;48.636;10.152;2022-08-21T15:17:02;33.40;31.00
30304;DHT22;17112;48.636;10.152;2022-08-21T15:19:29;33.70;30.00
30304;DHT22;17112;48.636;10.152;2022-08-21T15:21:55;34.00;29.60
30304;DHT22;17112;48.636;10.152;2022-08-21T15:24:21;34.20;29.10
30304;DHT22;17112;48.636;10.152;2022-08-21T15:26:48;34.30;29.40
30304;DHT22;17112;48.636;10.152;2022-08-21T15:29:14;34.40;28.60
30304;DHT22;17112;48.636;10.152;2022-08-21T15:32:14;34.50;28.50
30304;DHT22;17112;48.636;10.152;2022-08-21T15:34:39;34.50;27.80
30304;DHT22;17112;48.636;10.152;2022-08-21T15:37:05;34.40;28.30
30304;DHT22;17112;48.636;10.152;2022-08-21T15:39:34;34.50;28.60
30304;DHT22;17112;48.636;10.152;2022-08-21T15:42:01;34.60;29.20
30304;DHT22;17112;48.636;10.152;2022-08-21T15:44:28;34.70;28.20
30304;DHT22;17112;48.636;10.152;2022-08-21T15:46:54;34.80;28.20
30304;DHT22;17112;48.636;10.152;2022-08-21T15:49:20;34.80;26.80
30304;DHT22;17112;48.636;10.152;2022-08-21T15:51:45;34.70;27.00
30304;DHT22;17112;48.636;10.152;2022-08-21T15:54:11;34.60;27.30
30304;DHT22;17112;48.636;10.152;2022-08-21T15:56:39;34.60;27.40
30304;DHT22;17112;48.636;10.152;2022-08-21T15:59:08;34.80;27.30
30304;DHT22;17112;48.636;10.152;2022-08-21T16:01:38;34.90;27.10
30304;DHT22;17112;48.636;10.152;2022-08-21T16:04:05;35.00;27.10
30304;DHT22;17112;48.636;10.152;2022-08-21T16:06:31;35.10;27.20
30304;DHT22;17112;48.636;10.152;2022-08-21T16:08:58;35.20;27.20
30304;DHT22;17112;48.636;10.152;2022-08-21T16:11:23;35.20;27.00
30304;DHT22;17112;48.636;10.152;2022-08-21T16:13:49;35.30;27.00
30304;DHT22;17112;48.636;10.152;2022-08-21T16:16:19;35.40;26.10
30304;DHT22;17112;48.636;10.152;2022-08-21T16:18:46;35.40;25.60
30304;DHT22;17112;48.636;10.152;2022-08-21T16:21:12;35.50;25.80
30304;DHT22;17112;48.636;10.152;2022-08-21T16:23:38;35.50;26.10
30304;DHT22;17112;48.636;10.152;2022-08-21T16:26:06;35.50;26.10
30304;DHT22;17112;48.636;10.152;2022-08-21T16:28:33;35.60;25.80
30304;DHT22;17112;48.636;10.152;2022-08-21T16:31:01;35.60;25.90
30304;DHT22;17112;48.636;10.152;2022-08-21T16:33:43;35.70;25.40
30304;DHT22;17112;48.636;10.152;2022-08-21T16:36:11;35.70;24.70
30304;DHT22;17112;48.636;10.152;2022-08-21T16:38:37;35.70;24.80
30304;DHT22;17112;48.636;10.152;2022-08-21T16:41:10;35.60;24.50
30304;DHT22;17112;48.636;10.152;2022-08-21T16:43:38;35.80;24.90